createdAt,value
2018-05-29T00:02:04.965Z,19.80
2018-05-29T00:04:33.346Z,20.10
2018-05-29T00:07:01.752Z,20.40
2018-05-29T00:09:29.277Z,20.50
2018-05-29T00:11:56.907Z,20.50
2018-05-29T00:14:24.469Z,20.30
2018-05-29T00:16:51.980Z,20.10
2018-05-29T00:19:19.549Z,20.00
2018-05-29T00:21:47.099Z,19.80
2018-05-29T00:24:14.648Z,19.60
2018-05-29T00:26:42.187Z,19.70
2018-05-29T00:29:09.756Z,19.50
2018-05-29T00:31:38.122Z,19.40
2018-05-29T00:34:06.428Z,19.60
2018-05-29T00:36:34.226Z,19.60
2018-05-29T00:39:01.816Z,19.70
2018-05-29T00:41:29.401Z,19.40
2018-05-29T00:43:57.014Z,19.30
2018-05-29T00:46:24.568Z,19.40
2018-05-29T00:48:52.079Z,19.50
2018-05-29T00:51:19.654Z,19.30
2018-05-29T00:53:47.320Z,19.30
2018-05-29T00:56:14.894Z,19.50
2018-05-29T00:58:42.497Z,19.40
2018-05-29T01:01:10.026Z,19.50
2018-05-29T01:03:37.583Z,19.30
2018-05-29T01:06:05.180Z,19.40
2018-05-29T01:08:32.695Z,19.40
2018-05-29T01:11:00.236Z,19.40
2018-05-29T01:13:27.811Z,19.30
2018-05-29T01:15:55.399Z,19.20
2018-05-29T01:18:23.752Z,19.10
2018-05-29T01:20:51.343Z,19.10
2018-05-29T01:23:18.926Z,19.50
2018-05-29T01:25:46.517Z,19.50
2018-05-29T01:28:14.148Z,19.40
2018-05-29T01:30:41.680Z,19.40
2018-05-29T01:33:10.008Z,19.60
2018-05-29T01:35:37.583Z,19.60
2018-05-29T01:38:05.212Z,19.60
2018-05-29T01:40:32.995Z,19.50
2018-05-29T01:43:00.529Z,19.40
2018-05-29T01:45:28.136Z,19.40
2018-05-29T01:47:55.683Z,19.50
2018-05-29T01:50:23.268Z,19.70
2018-05-29T01:52:50.868Z,19.70
2018-05-29T01:55:18.422Z,19.70
2018-05-29T01:57:46.001Z,19.70
2018-05-29T02:00:13.545Z,19.60
2018-05-29T02:02:41.299Z,19.50
2018-05-29T02:05:08.825Z,19.30
2018-05-29T02:07:36.611Z,18.90
2018-05-29T02:10:04.156Z,18.50
2018-05-29T02:12:31.740Z,18.30
2018-05-29T02:14:59.268Z,18.20
2018-05-29T02:17:26.825Z,18.10
2018-05-29T02:19:54.356Z,18.00
2018-05-29T02:22:22.672Z,17.80
2018-05-29T02:24:50.240Z,17.80
2018-05-29T02:27:17.775Z,17.80
2018-05-29T02:29:45.347Z,17.90
2018-05-29T02:32:12.887Z,18.10
2018-05-29T02:34:40.449Z,18.00
2018-05-29T02:37:08.011Z,17.80
2018-05-29T02:39:35.576Z,17.80
2018-05-29T02:42:03.159Z,17.70
2018-05-29T02:44:30.710Z,17.70
2018-05-29T02:46:58.266Z,17.60
2018-05-29T02:49:25.867Z,17.60
2018-05-29T02:51:53.924Z,17.50
2018-05-29T02:54:21.454Z,17.50
2018-05-29T02:56:49.012Z,17.50
2018-05-29T02:59:16.572Z,17.40
2018-05-29T03:01:44.138Z,17.40
2018-05-29T03:04:11.666Z,17.60
2018-05-29T03:06:39.251Z,17.60
2018-05-29T03:09:06.859Z,17.50
2018-05-29T03:11:34.434Z,17.70
2018-05-29T03:14:02.840Z,17.60
2018-05-29T03:16:30.378Z,17.50
2018-05-29T03:18:57.946Z,17.40
2018-05-29T03:21:25.537Z,17.30
2018-05-29T03:23:53.992Z,17.30
2018-05-29T03:26:21.585Z,17.30
2018-05-29T03:28:49.137Z,17.30
2018-05-29T03:31:16.752Z,17.30
2018-05-29T03:33:44.312Z,17.20
2018-05-29T03:36:11.957Z,17.30
2018-05-29T03:38:39.541Z,17.30
2018-05-29T03:41:07.099Z,17.20
2018-05-29T03:43:36.671Z,17.20
2018-05-29T03:46:04.248Z,17.20
2018-05-29T03:48:31.840Z,17.20
2018-05-29T03:50:59.380Z,17.10
2018-05-29T03:53:26.966Z,17.20
2018-05-29T03:55:54.549Z,17.20
2018-05-29T03:58:22.083Z,17.20
2018-05-29T04:00:49.653Z,17.30
2018-05-29T04:03:17.981Z,17.30
2018-05-29T04:05:45.567Z,17.10
2018-05-29T04:08:13.132Z,17.30
2018-05-29T04:10:40.706Z,17.20
2018-05-29T04:13:09.020Z,17.20
2018-05-29T04:15:36.603Z,17.20
2018-05-29T04:18:04.169Z,17.30
2018-05-29T04:20:31.707Z,17.20
2018-05-29T04:22:59.267Z,17.30
2018-05-29T04:25:26.834Z,17.30
2018-05-29T04:27:54.472Z,17.20
2018-05-29T04:30:22.023Z,17.30
2018-05-29T04:32:49.697Z,17.30
2018-05-29T04:35:17.225Z,17.30
2018-05-29T04:37:44.827Z,17.30
2018-05-29T04:40:12.359Z,17.20
2018-05-29T04:42:39.927Z,17.10
2018-05-29T04:45:07.509Z,17.20
2018-05-29T04:47:35.064Z,17.20
2018-05-29T04:50:02.672Z,17.10
2018-05-29T04:52:30.249Z,17.10
2018-05-29T04:54:57.837Z,17.10
2018-05-29T04:57:25.386Z,17.00
2018-05-29T04:59:52.950Z,17.10
2018-05-29T05:02:20.482Z,17.00
2018-05-29T05:04:48.068Z,16.90
2018-05-29T05:07:15.607Z,16.80
2018-05-29T05:09:43.208Z,16.80
2018-05-29T05:12:10.771Z,16.80
2018-05-29T05:14:38.379Z,16.70
2018-05-29T05:17:05.930Z,16.70
2018-05-29T05:19:33.519Z,16.70
2018-05-29T05:22:01.066Z,16.60
2018-05-29T05:24:28.654Z,16.60
2018-05-29T05:26:56.248Z,16.50
2018-05-29T05:29:23.788Z,16.50
2018-05-29T05:31:51.382Z,16.40
2018-05-29T05:34:18.965Z,16.40
2018-05-29T05:36:46.562Z,16.40
2018-05-29T05:39:14.981Z,16.40
2018-05-29T05:41:42.648Z,16.20
2018-05-29T05:44:10.266Z,16.40
2018-05-29T05:46:38.600Z,16.50
2018-05-29T05:49:06.396Z,16.20
2018-05-29T05:51:34.213Z,16.40
2018-05-29T05:54:02.369Z,16.70
2018-05-29T05:56:30.877Z,16.40
2018-05-29T05:59:00.258Z,16.50
2018-05-29T06:01:27.869Z,16.50
2018-05-29T06:03:55.699Z,16.50
2018-05-29T06:06:23.243Z,16.60
2018-05-29T06:08:50.835Z,16.60
2018-05-29T06:11:18.392Z,16.70
2018-05-29T06:13:45.958Z,17.00
2018-05-29T06:16:13.540Z,16.50
2018-05-29T06:18:41.122Z,16.80
2018-05-29T06:21:08.654Z,16.80
2018-05-29T06:23:36.224Z,16.90
2018-05-29T06:26:04.064Z,17.00
2018-05-29T06:28:32.357Z,17.10
2018-05-29T06:31:00.114Z,16.90
2018-05-29T06:33:27.662Z,17.10
2018-05-29T06:35:56.152Z,17.30
2018-05-29T06:38:23.849Z,17.20
2018-05-29T06:40:51.412Z,17.30
2018-05-29T06:43:18.990Z,17.30
2018-05-29T06:45:46.518Z,17.30
2018-05-29T06:48:14.084Z,17.40
2018-05-29T06:50:41.678Z,17.40
2018-05-29T06:53:10.002Z,17.40
2018-05-29T06:55:37.566Z,17.60
2018-05-29T06:58:05.132Z,17.40
2018-05-29T07:00:33.596Z,17.40
2018-05-29T07:03:01.181Z,17.30
2018-05-29T07:05:28.848Z,17.60
2018-05-29T07:07:56.424Z,17.60
2018-05-29T07:10:24.061Z,17.60
2018-05-29T07:12:51.623Z,17.60
2018-05-29T07:15:19.286Z,17.70
2018-05-29T07:17:46.815Z,17.70
2018-05-29T07:20:14.406Z,17.80
2018-05-29T07:22:41.962Z,17.80
2018-05-29T07:25:09.496Z,18.00
2018-05-29T07:27:37.194Z,18.10
2018-05-29T07:30:04.744Z,18.20
2018-05-29T07:32:33.085Z,18.40
2018-05-29T07:35:00.673Z,18.40
2018-05-29T07:37:28.227Z,18.30
2018-05-29T07:39:55.852Z,18.30
2018-05-29T07:42:23.446Z,18.20
2018-05-29T07:44:51.031Z,18.20
2018-05-29T07:47:18.613Z,18.20
2018-05-29T07:49:46.159Z,18.20
2018-05-29T07:52:14.477Z,18.10
2018-05-29T07:54:42.253Z,18.10
2018-05-29T07:57:09.831Z,18.20
2018-05-29T07:59:37.348Z,18.20
2018-05-29T08:02:04.912Z,18.20
2018-05-29T08:04:32.441Z,18.20
2018-05-29T08:07:00.021Z,18.20
2018-05-29T08:09:27.586Z,18.30
2018-05-29T08:11:55.769Z,18.30
2018-05-29T08:14:23.417Z,18.30
2018-05-29T08:16:50.986Z,18.30
2018-05-29T08:19:18.510Z,18.30
2018-05-29T08:21:46.101Z,18.40
2018-05-29T08:24:13.661Z,18.50
2018-05-29T08:26:41.243Z,18.40
2018-05-29T08:29:08.859Z,18.40
2018-05-29T08:31:36.411Z,18.40
2018-05-29T08:34:03.984Z,18.50
2018-05-29T08:36:31.546Z,18.50
2018-05-29T08:38:59.126Z,18.60
2018-05-29T08:41:26.701Z,18.60
2018-05-29T08:43:54.372Z,18.70
2018-05-29T08:46:21.995Z,18.80
2018-05-29T08:48:49.562Z,18.90
2018-05-29T08:51:18.667Z,18.90
2018-05-29T08:53:46.253Z,18.90
2018-05-29T08:56:14.560Z,19.00
2018-05-29T08:58:42.136Z,18.90
2018-05-29T09:01:13.070Z,18.90
2018-05-29T09:03:40.657Z,18.80
2018-05-29T09:06:08.194Z,19.50
2018-05-29T09:08:35.783Z,19.40
2018-05-29T09:11:04.125Z,19.30
2018-05-29T09:13:31.665Z,19.30
2018-05-29T09:15:59.246Z,19.40
2018-05-29T09:18:26.838Z,19.40
2018-05-29T09:20:55.332Z,19.60
2018-05-29T09:23:22.900Z,19.60
2018-05-29T09:25:50.496Z,19.60
2018-05-29T09:28:18.054Z,19.60
2018-05-29T09:30:45.642Z,19.50
2018-05-29T09:33:13.202Z,19.60
2018-05-29T09:35:40.780Z,19.70
2018-05-29T09:38:08.320Z,19.70
2018-05-29T09:40:36.680Z,20.10
2018-05-29T09:43:04.425Z,20.10
2018-05-29T09:45:32.002Z,20.10
2018-05-29T09:47:59.554Z,20.10
2018-05-29T09:50:27.160Z,20.00
2018-05-29T09:52:54.756Z,20.20
2018-05-29T09:55:22.308Z,20.50
2018-05-29T09:57:49.910Z,20.70
2018-05-29T10:00:23.370Z,20.50
2018-05-29T10:02:50.922Z,20.60
2018-05-29T10:05:18.464Z,20.80
2018-05-29T10:07:46.359Z,21.00
2018-05-29T10:10:13.951Z,20.80
2018-05-29T10:12:41.511Z,20.70
2018-05-29T10:15:09.106Z,20.60
2018-05-29T10:17:37.293Z,20.60
2018-05-29T10:20:04.879Z,20.70
2018-05-29T10:22:32.477Z,21.00
2018-05-29T10:25:00.066Z,20.80
2018-05-29T10:27:27.831Z,20.80
2018-05-29T10:29:55.409Z,20.80
2018-05-29T10:32:23.759Z,20.90
2018-05-29T10:34:51.297Z,21.00
2018-05-29T10:37:18.886Z,21.10
2018-05-29T10:39:46.458Z,20.90
2018-05-29T10:42:14.026Z,21.00
2018-05-29T10:44:41.599Z,20.90
2018-05-29T10:47:09.909Z,21.00
2018-05-29T10:49:37.482Z,21.00
2018-05-29T10:52:05.116Z,21.20
2018-05-29T10:54:32.706Z,21.60
2018-05-29T10:57:00.407Z,21.80
2018-05-29T10:59:27.988Z,21.60
2018-05-29T11:01:55.582Z,21.50
2018-05-29T11:04:23.122Z,21.50
2018-05-29T11:06:50.671Z,22.00
2018-05-29T11:09:18.255Z,21.80
2018-05-29T11:11:45.830Z,21.90
2018-05-29T11:14:13.418Z,21.80
2018-05-29T11:16:40.978Z,21.60
2018-05-29T11:19:09.318Z,21.60
2018-05-29T11:21:36.843Z,21.60
2018-05-29T11:24:04.417Z,21.90
2018-05-29T11:26:32.211Z,21.80
2018-05-29T11:28:59.779Z,21.90
2018-05-29T11:31:27.355Z,21.90
2018-05-29T11:33:54.955Z,21.80
2018-05-29T11:36:22.545Z,21.80
2018-05-29T11:38:50.089Z,21.90
2018-05-29T11:41:17.660Z,22.00
2018-05-29T11:43:45.193Z,22.00
2018-05-29T11:46:12.743Z,22.10
2018-05-29T11:48:40.309Z,22.20
2018-05-29T11:51:07.932Z,21.90
2018-05-29T11:53:35.517Z,21.80
2018-05-29T11:56:03.065Z,22.00
2018-05-29T11:58:30.641Z,21.90
2018-05-29T12:00:58.171Z,22.00
2018-05-29T12:03:25.763Z,22.00
2018-05-29T12:05:53.302Z,22.00
2018-05-29T12:08:20.879Z,22.10
2018-05-29T12:10:48.454Z,21.90
2018-05-29T12:13:15.985Z,21.90
2018-05-29T12:15:43.567Z,22.00
2018-05-29T12:18:11.335Z,22.10
2018-05-29T12:20:38.905Z,21.90
2018-05-29T12:23:06.443Z,21.70
2018-05-29T12:25:34.015Z,21.90
2018-05-29T12:28:01.550Z,22.10
2018-05-29T12:30:29.920Z,22.10
2018-05-29T12:32:57.453Z,22.10
2018-05-29T12:35:25.050Z,22.20
2018-05-29T12:37:52.589Z,22.20
2018-05-29T12:40:20.213Z,22.40
2018-05-29T12:42:47.735Z,22.20
2018-05-29T12:45:15.313Z,22.20
2018-05-29T12:47:43.637Z,22.10
2018-05-29T12:50:11.227Z,22.10
2018-05-29T12:52:38.828Z,22.10
2018-05-29T12:55:07.121Z,21.80
2018-05-29T12:57:34.713Z,21.80
2018-05-29T13:00:02.291Z,21.70
2018-05-29T13:02:29.878Z,21.80
2018-05-29T13:04:58.236Z,21.70
2018-05-29T13:07:25.768Z,21.70
2018-05-29T13:09:53.345Z,21.70
2018-05-29T13:12:20.880Z,21.70
2018-05-29T13:14:48.466Z,21.60
2018-05-29T13:17:16.762Z,21.40
2018-05-29T13:19:45.107Z,21.30
2018-05-29T13:22:12.678Z,21.30
2018-05-29T13:24:40.224Z,21.20
2018-05-29T13:27:07.845Z,21.10
2018-05-29T13:29:35.348Z,21.10
2018-05-29T13:32:03.698Z,21.20
2018-05-29T13:34:31.301Z,21.10
2018-05-29T13:36:58.836Z,21.10
2018-05-29T13:39:26.425Z,21.00
2018-05-29T13:41:54.015Z,21.00
2018-05-29T13:44:21.610Z,21.20
2018-05-29T13:46:49.137Z,21.20
2018-05-29T13:49:16.791Z,21.40
2018-05-29T13:51:44.557Z,21.60
2018-05-29T13:54:12.095Z,21.60
2018-05-29T13:56:39.658Z,21.50
2018-05-29T13:59:07.398Z,21.70
2018-05-29T14:01:35.001Z,21.70
2018-05-29T14:04:02.653Z,21.80
2018-05-29T14:06:30.781Z,21.70
2018-05-29T14:08:59.226Z,21.50
2018-05-29T14:11:26.806Z,21.50
2018-05-29T14:13:54.318Z,21.50
2018-05-29T14:16:21.852Z,21.50
2018-05-29T14:18:49.538Z,21.50
2018-05-29T14:21:17.089Z,21.70
2018-05-29T14:23:44.689Z,21.70
2018-05-29T14:26:12.211Z,22.00
2018-05-29T14:28:39.783Z,21.60
2018-05-29T14:31:08.129Z,21.50
2018-05-29T14:33:35.716Z,21.40
2018-05-29T14:36:03.299Z,21.30
2018-05-29T14:38:30.933Z,21.40
2018-05-29T14:40:58.446Z,21.40
2018-05-29T14:43:25.989Z,21.10
2018-05-29T14:45:54.338Z,21.00
2018-05-29T14:48:21.882Z,20.90
2018-05-29T14:50:49.562Z,21.20
2018-05-29T14:53:17.128Z,21.30
2018-05-29T14:55:44.753Z,21.30
2018-05-29T14:58:12.309Z,21.30
2018-05-29T15:00:39.977Z,21.30
2018-05-29T15:03:07.565Z,21.40
2018-05-29T15:05:35.110Z,21.30
2018-05-29T15:08:02.690Z,21.60
2018-05-29T15:10:30.217Z,21.40
2018-05-29T15:12:57.892Z,21.30
2018-05-29T15:15:25.429Z,21.30
2018-05-29T15:17:53.035Z,21.10
2018-05-29T15:20:20.657Z,20.90
2018-05-29T15:22:48.266Z,21.00
2018-05-29T15:25:15.800Z,20.90
2018-05-29T15:27:44.214Z,20.80
2018-05-29T15:30:11.825Z,20.80
2018-05-29T15:32:40.890Z,21.00
2018-05-29T15:35:08.744Z,21.00
2018-05-29T15:37:36.343Z,21.20
2018-05-29T15:40:03.880Z,21.30
2018-05-29T15:42:31.443Z,21.30
2018-05-29T15:44:59.010Z,21.40
2018-05-29T15:47:26.636Z,21.50
2018-05-29T15:49:54.258Z,21.40
2018-05-29T15:52:21.810Z,21.40
2018-05-29T15:54:50.155Z,21.30
2018-05-29T15:57:17.738Z,21.30
2018-05-29T15:59:45.375Z,21.30
2018-05-29T16:02:12.938Z,21.40
2018-05-29T16:04:40.549Z,21.50
2018-05-29T16:07:08.103Z,21.40
2018-05-29T16:09:35.711Z,21.40
2018-05-29T16:12:04.492Z,21.30
2018-05-29T16:14:32.101Z,21.10
2018-05-29T16:17:00.712Z,21.00
2018-05-29T16:19:28.260Z,21.00
2018-05-29T16:21:55.838Z,21.00
2018-05-29T16:24:23.389Z,21.10
2018-05-29T16:26:50.995Z,21.20
2018-05-29T16:29:18.596Z,21.10
2018-05-29T16:31:46.199Z,21.30
2018-05-29T16:34:13.767Z,21.20
2018-05-29T16:36:41.288Z,21.40
2018-05-29T16:39:08.864Z,21.60
2018-05-29T16:41:36.537Z,21.40
2018-05-29T16:44:04.094Z,21.40
2018-05-29T16:46:31.653Z,21.50
2018-05-29T16:48:59.269Z,21.60
2018-05-29T16:51:26.937Z,21.50
2018-05-29T16:53:55.512Z,21.40
2018-05-29T16:56:24.032Z,21.30
2018-05-29T16:58:51.656Z,21.40
2018-05-29T17:01:19.278Z,21.30
2018-05-29T17:03:47.641Z,21.20
2018-05-29T17:06:15.224Z,21.20
2018-05-29T17:08:42.921Z,21.00
2018-05-29T17:11:10.622Z,21.10
2018-05-29T17:13:38.192Z,20.90
2018-05-29T17:16:05.799Z,20.80
2018-05-29T17:18:33.325Z,20.80
2018-05-29T17:21:01.693Z,21.10
2018-05-29T17:23:29.991Z,20.80
2018-05-29T17:25:57.642Z,20.80
2018-05-29T17:28:27.819Z,20.70
2018-05-29T17:30:56.162Z,20.20
2018-05-29T17:33:23.845Z,20.20
2018-05-29T17:35:51.390Z,20.10
2018-05-29T17:38:19.031Z,19.90
2018-05-29T17:40:46.548Z,20.00
2018-05-29T17:43:14.130Z,20.00
2018-05-29T17:45:41.798Z,19.70
2018-05-29T17:48:09.570Z,19.40
2018-05-29T17:50:37.111Z,19.10
2018-05-29T17:53:04.686Z,18.90
2018-05-29T17:55:32.250Z,18.70
2018-05-29T17:57:59.877Z,18.70
2018-05-29T18:00:27.472Z,18.50
2018-05-29T18:02:55.016Z,18.50
2018-05-29T18:05:23.380Z,18.40
2018-05-29T18:07:51.129Z,18.40
2018-05-29T18:10:18.719Z,18.30
2018-05-29T18:12:46.270Z,18.10
2018-05-29T18:15:13.899Z,18.00
2018-05-29T18:17:41.510Z,18.10
2018-05-29T18:20:09.083Z,18.10
2018-05-29T18:22:36.622Z,18.00
2018-05-29T18:25:04.212Z,17.90
2018-05-29T18:27:31.803Z,17.90
2018-05-29T18:30:00.356Z,18.00
2018-05-29T18:32:27.988Z,17.90
2018-05-29T18:34:55.602Z,17.90
2018-05-29T18:37:23.912Z,17.70
2018-05-29T18:39:51.527Z,17.20
2018-05-29T18:42:19.093Z,17.70
2018-05-29T18:44:46.913Z,17.60
2018-05-29T18:47:14.462Z,17.40
2018-05-29T18:49:42.094Z,17.60
2018-05-29T18:52:09.868Z,17.30
2018-05-29T18:54:37.483Z,17.20
2018-05-29T18:57:05.094Z,17.20
2018-05-29T18:59:32.628Z,17.10
2018-05-29T19:02:01.097Z,17.00
2018-05-29T19:04:28.648Z,16.90
2018-05-29T19:06:56.220Z,16.80
2018-05-29T19:09:23.833Z,16.70
2018-05-29T19:11:51.384Z,17.00
2018-05-29T19:14:18.956Z,16.90
2018-05-29T19:16:46.507Z,16.80
2018-05-29T19:19:14.083Z,16.60
2018-05-29T19:21:41.708Z,16.60
2018-05-29T19:24:09.312Z,16.50
2018-05-29T19:26:36.868Z,16.60
2018-05-29T19:29:05.196Z,16.70
2018-05-29T19:31:32.722Z,16.90
2018-05-29T19:34:01.076Z,16.50
2018-05-29T19:36:29.392Z,16.40
2018-05-29T19:38:56.988Z,16.20
2018-05-29T19:41:24.554Z,16.20
2018-05-29T19:43:52.086Z,16.10
2018-05-29T19:46:19.668Z,16.10
2018-05-29T19:48:47.962Z,16.80
2018-05-29T19:51:16.355Z,17.00
2018-05-29T19:53:44.677Z,17.10
2018-05-29T19:56:12.264Z,17.40
2018-05-29T19:58:41.005Z,16.80
2018-05-29T20:01:08.638Z,16.50
2018-05-29T20:03:36.193Z,16.30
2018-05-29T20:06:04.563Z,16.50
2018-05-29T20:08:32.091Z,16.40
2018-05-29T20:10:59.682Z,16.20
2018-05-29T20:13:27.282Z,16.20
2018-05-29T20:15:54.796Z,16.40
2018-05-29T20:18:22.372Z,16.60
2018-05-29T20:20:50.032Z,16.60
2018-05-29T20:23:17.852Z,16.60
2018-05-29T20:25:45.371Z,16.50
2018-05-29T20:28:12.932Z,16.60
2018-05-29T20:30:40.475Z,16.70
2018-05-29T20:33:08.050Z,16.60
2018-05-29T20:35:35.649Z,16.70
2018-05-29T20:38:03.222Z,16.80
2018-05-29T20:40:30.816Z,16.70
2018-05-29T20:42:58.381Z,16.80
2018-05-29T20:45:25.952Z,16.70
2018-05-29T20:47:53.484Z,16.70
2018-05-29T20:50:21.049Z,16.70
2018-05-29T20:52:48.580Z,16.80
2018-05-29T20:55:16.202Z,17.00
2018-05-29T20:57:43.730Z,17.00
2018-05-29T21:00:11.304Z,17.00
2018-05-29T21:02:39.648Z,17.00
2018-05-29T21:05:07.289Z,16.90
2018-05-29T21:07:34.863Z,16.90
2018-05-29T21:10:02.636Z,17.00
2018-05-29T21:12:30.220Z,17.00
2018-05-29T21:14:57.820Z,17.10
2018-05-29T21:17:25.373Z,17.00
2018-05-29T21:19:52.929Z,17.00
2018-05-29T21:22:20.541Z,16.90
2018-05-29T21:24:48.811Z,17.00
2018-05-29T21:27:16.557Z,17.10
2018-05-29T21:29:44.170Z,16.90
2018-05-29T21:32:11.737Z,16.90
2018-05-29T21:34:39.329Z,17.00
2018-05-29T21:37:07.011Z,17.00
2018-05-29T21:39:34.603Z,17.00
2018-05-29T21:42:02.946Z,16.80
2018-05-29T21:44:30.686Z,16.90
2018-05-29T21:46:58.378Z,16.70
2018-05-29T21:49:25.952Z,16.70
2018-05-29T21:51:53.514Z,17.00
2018-05-29T21:54:21.872Z,17.00
2018-05-29T21:56:50.937Z,16.80
2018-05-29T21:59:18.521Z,17.10
2018-05-29T22:01:46.181Z,17.00
2018-05-29T22:04:13.710Z,17.00
2018-05-29T22:06:41.298Z,16.80
2018-05-29T22:09:08.856Z,16.70
2018-05-29T22:11:36.464Z,16.60
2018-05-29T22:14:04.147Z,16.40
2018-05-29T22:16:31.738Z,16.40
2018-05-29T22:18:59.319Z,16.30
2018-05-29T22:21:27.636Z,16.10
2018-05-29T22:23:55.216Z,16.10
2018-05-29T22:26:22.795Z,16.10
2018-05-29T22:28:50.664Z,16.00
2018-05-29T22:31:19.077Z,15.90
2018-05-29T22:33:47.403Z,15.90
2018-05-29T22:36:14.979Z,15.80
2018-05-29T22:38:43.274Z,15.80
2018-05-29T22:41:11.608Z,15.80
2018-05-29T22:43:39.143Z,15.70
2018-05-29T22:46:06.813Z,15.60
2018-05-29T22:48:34.380Z,15.60
2018-05-29T22:51:01.911Z,16.00
2018-05-29T22:53:29.523Z,15.90
2018-05-29T22:55:57.097Z,15.80
2018-05-29T22:58:24.694Z,15.70
2018-05-29T23:00:52.283Z,15.70
2018-05-29T23:03:19.934Z,16.20
2018-05-29T23:05:47.512Z,16.40
2018-05-29T23:08:15.123Z,16.40
2018-05-29T23:10:42.758Z,16.00
2018-05-29T23:13:10.347Z,15.90
2018-05-29T23:15:39.659Z,15.90
2018-05-29T23:18:07.264Z,15.90
2018-05-29T23:20:34.969Z,16.20
2018-05-29T23:23:02.548Z,16.50
2018-05-29T23:25:30.090Z,16.20
2018-05-29T23:27:57.667Z,16.00
2018-05-29T23:30:25.199Z,15.90
2018-05-29T23:32:52.747Z,15.80
2018-05-29T23:35:20.326Z,15.90
2018-05-29T23:37:47.979Z,15.80
2018-05-29T23:40:15.535Z,15.80
2018-05-29T23:42:43.117Z,15.70
2018-05-29T23:45:10.769Z,15.70
2018-05-29T23:47:38.347Z,15.60
2018-05-29T23:50:05.943Z,15.80
2018-05-29T23:52:33.525Z,15.90
2018-05-29T23:55:01.146Z,15.80
2018-05-29T23:57:29.473Z,15.60
2018-05-29T23:59:57.245Z,15.70
